Time;durP1;ratioP1;P1;durP2;ratioP2;P2;SDS_P1;SDS_P2;PMS_P1;PMS_P2;Temp;Humidity;BMP_temperature;BMP_pressure;BME280_temperature;BME280_humidity;BME280_pressure;Samples;Min_cycle;Max_cycle;Signal;HPM_P1;HPM_P2
2022/06/30 05:41:12;;;;;;;;;;;;;;;25.27;100.00;98056.41;5853360;24;19963;31
2022/06/30 05:43:42;;;;;;;;;;;;;;;25.30;100.00;98061.91;4789729;30;19966;-80
2022/06/30 05:46:09;;;;;;;;;;;;;;;25.42;97.73;98069.34;4780833;30;19973;-80
2022/06/30 05:48:36;;;;;;;;;;;;;;;25.78;99.38;98084.31;4790500;30;20243;-80
2022/06/30 05:51:06;;;;;;;;;;;;;;;25.86;98.29;98082.56;4782670;29;19961;-80
2022/06/30 05:53:33;;;;;;;;;;;;;;;25.87;96.44;98084.91;4788272;30;19956;-80
2022/06/30 05:56:01;;;;;;;;;;;;;;;26.00;93.97;98095.97;4786430;29;19957;-80
2022/06/30 05:58:28;;;;;;;;;;;;;;;25.90;95.13;98091.72;4790327;29;19950;-79
2022/06/30 06:00:55;;;;;;;;;;;;;;;26.10;96.44;98100.25;4782766;29;19953;-80
2022/06/30 06:03:23;;;;;;;;;;;;;;;25.88;96.00;98095.09;4792090;29;20270;-80
2022/06/30 06:05:50;;;;;;;;;;;;;;;26.06;97.12;98091.91;4790793;29;19972;-80
2022/06/30 06:08:17;;;;;;;;;;;;;;;25.70;99.24;98097.53;4776551;29;19949;-80
2022/06/30 06:10:45;;;;;;;;;;;;;;;25.66;100.00;98099.81;4790229;29;19954;-79
2022/06/30 06:13:14;;;;;;;;;;;;;;;25.56;100.00;98107.78;4772134;30;20359;-79
2022/06/30 06:15:43;;;;;;;;;;;;;;;25.81;100.00;98109.09;4777635;29;19957;-79
2022/06/30 06:18:11;;;;;;;;;;;;;;;25.50;100.00;98106.94;4778702;29;19981;-80
2022/06/30 06:20:38;;;;;;;;;;;;;;;25.59;100.00;98103.13;4782696;29;20243;-80
2022/06/30 06:23:05;;;;;;;;;;;;;;;25.52;99.72;98100.69;4791008;29;20334;-79
2022/06/30 06:25:32;;;;;;;;;;;;;;;25.37;100.00;98098.69;4781621;29;19958;-80
2022/06/30 06:30:49;;;;;;;;;;;;;;;25.35;100.00;98115.59;4791128;29;19948;-80
2022/06/30 06:33:16;;;;;;;;;;;;;;;25.48;100.00;98117.31;4789619;29;19966;-80
2022/06/30 06:35:43;;;;;;;;;;;;;;;25.49;100.00;98110.28;4789701;30;19948;-80
2022/06/30 06:38:11;;;;;;;;;;;;;;;25.43;100.00;98110.22;4790541;30;19964;-80
2022/06/30 06:40:38;;;;;;;;;;;;;;;25.63;97.97;98118.03;4790780;30;19949;-80
2022/06/30 06:43:05;;;;;;;;;;;;;;;25.81;96.53;98117.69;4790512;30;19968;-80
2022/06/30 06:45:32;;;;;;;;;;;;;;;25.96;95.44;98122.00;4791120;30;19955;-80
2022/06/30 06:48:00;;;;;;;;;;;;;;;25.97;93.92;98114.19;4791137;30;19966;-80
2022/06/30 06:50:27;;;;;;;;;;;;;;;26.16;93.73;98114.66;4784277;30;19956;-79
2022/06/30 06:52:55;;;;;;;;;;;;;;;26.27;95.48;98111.88;4785737;30;20368;-80
2022/06/30 06:55:22;;;;;;;;;;;;;;;26.40;94.73;98112.25;4790740;29;19965;-80
2022/06/30 06:57:49;;;;;;;;;;;;;;;26.20;97.97;98115.22;4790818;29;20418;-80
2022/06/30 07:00:18;;;;;;;;;;;;;;;26.43;98.15;98105.50;4790517;30;19984;-80
2022/06/30 07:02:45;;;;;;;;;;;;;;;26.40;100.00;98100.78;4787214;30;19947;-80
2022/06/30 07:05:12;;;;;;;;;;;;;;;26.30;100.00;98114.53;4790874;29;19949;-80
2022/06/30 07:07:40;;;;;;;;;;;;;;;26.62;100.00;98107.47;4786824;30;19969;-79
2022/06/30 07:10:08;;;;;;;;;;;;;;;26.85;100.00;98110.53;4790287;29;19945;-80
2022/06/30 07:12:35;;;;;;;;;;;;;;;26.72;100.00;98097.38;4793087;29;20254;-79
2022/06/30 07:15:03;;;;;;;;;;;;;;;26.86;100.00;98100.59;4793523;29;19956;-79
2022/06/30 07:17:36;;;;;;;;;;;;;;;26.90;100.00;98109.78;4779679;29;19954;-79
2022/06/30 07:20:04;;;;;;;;;;;;;;;26.98;100.00;98116.59;4784770;29;19948;-79
2022/06/30 07:22:31;;;;;;;;;;;;;;;27.08;100.00;98120.81;4784264;29;19956;-80
2022/06/30 07:24:59;;;;;;;;;;;;;;;27.09;100.00;98123.19;4783581;29;20249;-80
2022/06/30 07:27:31;;;;;;;;;;;;;;;27.13;100.00;98120.06;4790140;29;19972;-80
2022/06/30 07:29:58;;;;;;;;;;;;;;;27.39;100.00;98114.22;4792684;29;19950;-79
2022/06/30 07:32:25;;;;;;;;;;;;;;;27.46;98.26;98117.38;4783524;29;19948;-79
2022/06/30 07:34:55;;;;;;;;;;;;;;;27.25;99.13;98115.94;4789941;29;19954;-79
2022/06/30 07:37:22;;;;;;;;;;;;;;;27.30;100.00;98118.06;4790086;30;19959;-79
2022/06/30 07:39:49;;;;;;;;;;;;;;;27.32;100.00;98106.84;4789565;30;19949;-80
2022/06/30 07:42:17;;;;;;;;;;;;;;;27.18;100.00;98102.09;4789805;30;19982;-79
2022/06/30 07:44:44;;;;;;;;;;;;;;;27.43;100.00;98111.88;4789780;30;19978;-79
2022/06/30 07:47:12;;;;;;;;;;;;;;;27.32;100.00;98103.97;4789557;30;19978;-80
2022/06/30 07:49:40;;;;;;;;;;;;;;;27.20;100.00;98096.59;4789319;29;20273;-79
2022/06/30 07:52:08;;;;;;;;;;;;;;;27.28;100.00;98103.44;4783642;29;19955;-80
2022/06/30 07:54:39;;;;;;;;;;;;;;;27.08;100.00;98106.47;4788129;29;20402;-79
2022/06/30 07:57:06;;;;;;;;;;;;;;;27.13;100.00;98111.47;4788814;29;19958;-79
2022/06/30 07:59:54;;;;;;;;;;;;;;;27.28;100.00;98098.50;4797464;29;19947;-79
2022/06/30 08:02:21;;;;;;;;;;;;;;;27.37;100.00;98101.13;4789068;29;19957;-79
2022/06/30 08:04:48;;;;;;;;;;;;;;;27.54;100.00;98097.53;4790063;29;19950;-79
2022/06/30 08:07:15;;;;;;;;;;;;;;;27.56;100.00;98094.97;4788397;29;19995;-79
2022/06/30 08:09:42;;;;;;;;;;;;;;;27.73;100.00;98099.44;4774359;30;19955;-79
2022/06/30 08:12:11;;;;;;;;;;;;;;;27.57;100.00;98100.19;4789582;30;19947;-79
2022/06/30 08:14:39;;;;;;;;;;;;;;;27.54;100.00;98101.22;4788122;30;19976;-79
2022/06/30 08:17:06;;;;;;;;;;;;;;;27.74;100.00;98103.09;4789685;29;19962;-79
2022/06/30 08:19:34;;;;;;;;;;;;;;;27.62;100.00;98108.03;4788922;30;19948;-80
2022/06/30 08:22:01;;;;;;;;;;;;;;;27.80;100.00;98098.91;4793933;29;20014;-79
2022/06/30 08:24:28;;;;;;;;;;;;;;;27.77;100.00;98104.94;4789266;29;19947;-79
2022/06/30 08:26:58;;;;;;;;;;;;;;;27.98;100.00;98098.44;4789381;30;20369;-79
2022/06/30 08:29:25;;;;;;;;;;;;;;;27.86;97.65;98101.81;4789208;30;19952;-79
2022/06/30 08:31:52;;;;;;;;;;;;;;;27.88;100.00;98105.72;4789469;29;19947;-79
2022/06/30 08:34:20;;;;;;;;;;;;;;;27.74;100.00;98103.88;4789350;30;19956;-79
2022/06/30 08:36:47;;;;;;;;;;;;;;;27.83;100.00;98105.72;4789581;29;20034;-79
2022/06/30 08:42:04;;;;;;;;;;;;;;;28.08;100.00;98089.59;4789363;30;19968;-79
2022/06/30 08:44:33;;;;;;;;;;;;;;;28.06;100.00;98092.19;4789999;29;20293;-79
2022/06/30 08:47:01;;;;;;;;;;;;;;;27.85;100.00;98091.63;4792715;30;19991;-79
2022/06/30 08:49:29;;;;;;;;;;;;;;;27.86;100.00;98093.97;4791979;29;19949;-79
2022/06/30 08:51:57;;;;;;;;;;;;;;;27.77;100.00;98091.34;4780579;29;19956;-81
2022/06/30 08:54:26;;;;;;;;;;;;;;;27.96;100.00;98098.19;4790215;30;20222;-77
2022/06/30 08:56:54;;;;;;;;;;;;;;;27.81;100.00;98091.88;4792965;30;19949;-77
2022/06/30 08:59:24;;;;;;;;;;;;;;;28.07;100.00;98088.03;4792966;29;19959;-80
2022/06/30 09:01:54;;;;;;;;;;;;;;;28.15;100.00;98086.19;4792437;29;19948;-80
2022/06/30 09:04:22;;;;;;;;;;;;;;;27.97;100.00;98090.34;4793093;30;19958;-80
2022/06/30 09:06:49;;;;;;;;;;;;;;;27.99;100.00;98090.59;4793052;29;19976;-80
2022/06/30 09:09:18;;;;;;;;;;;;;;;28.11;100.00;98074.16;4792887;29;20058;-79
2022/06/30 09:11:49;;;;;;;;;;;;;;;28.06;100.00;98069.19;4792326;29;19956;-79
2022/06/30 09:14:36;;;;;;;;;;;;;;;27.72;100.00;98072.00;4796841;29;19959;-79
2022/06/30 09:17:07;;;;;;;;;;;;;;;28.13;100.00;98068.69;4795531;29;19954;-79
2022/06/30 09:19:40;;;;;;;;;;;;;;;27.92;100.00;98077.53;4792687;30;19956;-79
2022/06/30 09:22:14;;;;;;;;;;;;;;;28.14;100.00;98079.69;4791729;30;20342;-79
2022/06/30 09:24:41;;;;;;;;;;;;;;;28.11;100.00;98077.03;4792041;29;19976;-79
2022/06/30 09:27:29;;;;;;;;;;;;;;;28.10;100.00;98075.50;4791826;30;19966;-79
2022/06/30 09:29:56;;;;;;;;;;;;;;;28.24;100.00;98083.06;4791944;30;20264;-79
2022/06/30 09:33:02;;;;;;;;;;;;;;;28.38;100.00;98079.94;4792646;30;19950;-79
2022/06/30 09:35:30;;;;;;;;;;;;;;;28.46;100.00;98083.81;4792229;30;19954;-79
2022/06/30 09:38:07;;;;;;;;;;;;;;;28.39;100.00;98081.47;4792539;30;19950;-79
2022/06/30 09:40:38;;;;;;;;;;;;;;;28.38;100.00;98079.94;4792479;30;19948;-79
2022/06/30 09:43:06;;;;;;;;;;;;;;;28.41;100.00;98078.88;4791610;30;19976;-79
2022/06/30 09:45:33;;;;;;;;;;;;;;;28.41;100.00;98072.34;4776474;30;19950;-79
2022/06/30 09:48:00;;;;;;;;;;;;;;;28.52;100.00;98076.00;4791701;29;19964;-79
2022/06/30 09:50:28;;;;;;;;;;;;;;;28.39;100.00;98086.47;4785406;29;19956;-79
2022/06/30 09:53:15;;;;;;;;;;;;;;;28.57;100.00;98080.16;4785974;30;20349;-79
2022/06/30 09:55:47;;;;;;;;;;;;;;;28.47;100.00;98079.66;4781066;29;20386;-79
2022/06/30 09:58:35;;;;;;;;;;;;;;;28.55;100.00;98080.69;4791854;29;19948;-78
2022/06/30 10:01:02;;;;;;;;;;;;;;;28.37;100.00;98078.34;4791409;29;19967;-78
2022/06/30 10:03:33;;;;;;;;;;;;;;;28.23;100.00;98081.50;4793046;30;19953;-79
2022/06/30 10:06:11;;;;;;;;;;;;;;;28.37;100.00;98077.56;4791965;29;19955;-79
2022/06/30 10:08:38;;;;;;;;;;;;;;;28.49;100.00;98087.75;4791366;29;19962;-79
2022/06/30 10:11:06;;;;;;;;;;;;;;;28.43;100.00;98084.09;4793477;29;19949;-79
2022/06/30 10:13:34;;;;;;;;;;;;;;;28.46;100.00;98083.81;4791023;29;19947;-79
2022/06/30 10:16:03;;;;;;;;;;;;;;;28.30;100.00;98089.59;4791021;30;19964;-79
2022/06/30 10:18:32;;;;;;;;;;;;;;;28.38;100.00;98084.88;4791052;30;19949;-78
2022/06/30 10:21:01;;;;;;;;;;;;;;;28.43;100.00;98087.78;4791552;29;19977;-79
2022/06/30 10:23:28;;;;;;;;;;;;;;;28.36;100.00;98093.25;4791066;30;19956;-79
2022/06/30 10:25:55;;;;;;;;;;;;;;;28.44;100.00;98094.31;4791017;29;19952;-79
2022/06/30 10:28:24;;;;;;;;;;;;;;;28.65;98.57;98095.63;4791162;29;19974;-79
2022/06/30 10:31:06;;;;;;;;;;;;;;;28.62;100.00;98088.81;4790989;29;19952;-79
2022/06/30 10:33:52;;;;;;;;;;;;;;;28.71;100.00;98087.75;4791043;29;19954;-79
2022/06/30 10:36:23;;;;;;;;;;;;;;;28.76;100.00;98084.06;4779557;29;20227;-79
2022/06/30 10:38:57;;;;;;;;;;;;;;;28.81;100.00;98085.38;4790913;30;19952;-79
2022/06/30 10:41:25;;;;;;;;;;;;;;;28.89;100.00;98089.28;4779050;30;20276;-79
2022/06/30 10:44:04;;;;;;;;;;;;;;;28.78;100.00;98097.97;4791420;29;19983;-79
2022/06/30 10:46:32;;;;;;;;;;;;;;;28.69;100.00;98087.50;4779668;30;20382;-79
2022/06/30 10:49:06;;;;;;;;;;;;;;;28.79;100.00;98088.00;4790905;30;19968;-79
2022/06/30 10:51:33;;;;;;;;;;;;;;;28.68;100.00;98085.16;4791040;30;19954;-79
2022/06/30 10:54:01;;;;;;;;;;;;;;;28.73;100.00;98088.03;4790829;30;19964;-79
2022/06/30 10:56:46;;;;;;;;;;;;;;;28.71;100.00;98092.75;4791204;30;19945;-79
2022/06/30 10:59:14;;;;;;;;;;;;;;;28.44;96.11;98086.44;4790482;30;19951;-79
2022/06/30 11:02:00;;;;;;;;;;;;;;;28.54;100.00;98084.09;4790295;30;19952;-79
2022/06/30 11:04:27;;;;;;;;;;;;;;;28.47;98.51;98087.50;4787654;30;19974;-79
2022/06/30 11:06:56;;;;;;;;;;;;;;;28.64;92.73;98085.41;4794758;29;19962;-79
2022/06/30 11:09:47;;;;;;;;;;;;;;;28.82;99.67;98078.31;4790391;29;19969;-79
2022/06/30 11:12:16;;;;;;;;;;;;;;;28.90;100.00;98083.03;4767666;30;19955;-79
2022/06/30 11:14:51;;;;;;;;;;;;;;;28.95;100.00;98072.78;4772661;30;19950;-79
2022/06/30 11:17:21;;;;;;;;;;;;;;;28.96;100.00;98071.47;4789504;29;19949;-79
2022/06/30 11:20:05;;;;;;;;;;;;;;;29.00;100.00;98069.88;4790727;29;19953;-79
2022/06/30 11:22:32;;;;;;;;;;;;;;;29.11;95.13;98071.94;4790102;30;19958;-80
2022/06/30 11:25:10;;;;;;;;;;;;;;;28.87;99.73;98072.56;4790065;29;19948;-79
2022/06/30 11:27:38;;;;;;;;;;;;;;;29.03;100.00;98068.03;4789760;30;19947;-79
2022/06/30 11:30:07;;;;;;;;;;;;;;;29.02;99.29;98075.91;4790631;30;19943;-79
2022/06/30 11:32:34;;;;;;;;;;;;;;;28.90;97.29;98077.25;4790632;30;20378;-79
2022/06/30 11:35:02;;;;;;;;;;;;;;;28.87;100.00;98074.66;4774343;30;19954;-80
2022/06/30 11:37:31;;;;;;;;;;;;;;;29.02;97.28;98066.50;4789872;30;19947;-79
2022/06/30 11:40:03;;;;;;;;;;;;;;;29.14;96.26;98065.13;4790235;30;19946;-79
2022/06/30 11:42:30;;;;;;;;;;;;;;;29.03;100.00;98060.19;4790095;30;19968;-85
2022/06/30 11:44:58;;;;;;;;;;;;;;;29.19;100.00;98061.47;4790287;29;19955;-86
2022/06/30 11:47:28;;;;;;;;;;;;;;;29.24;96.68;98061.47;4795538;29;19952;-75
2022/06/30 11:49:57;;;;;;;;;;;;;;;29.29;93.88;98059.88;4789100;29;20259;-76
2022/06/30 11:52:27;;;;;;;;;;;;;;;29.37;100.00;98055.09;4780470;29;19955;-77
2022/06/30 11:54:54;;;;;;;;;;;;;;;29.45;96.85;98059.00;4776802;30;19951;-76
2022/06/30 11:57:40;;;;;;;;;;;;;;;29.45;97.71;98058.19;4779339;29;19950;-77
2022/06/30 12:00:13;;;;;;;;;;;;;;;29.49;100.00;98058.72;4789451;29;19950;-76
2022/06/30 12:02:41;;;;;;;;;;;;;;;29.48;99.47;98054.28;4797345;29;19949;-77
2022/06/30 12:05:09;;;;;;;;;;;;;;;29.43;95.18;98046.44;4790188;29;20364;-77
2022/06/30 12:07:37;;;;;;;;;;;;;;;29.37;94.70;98049.34;4779570;30;19947;-76
2022/06/30 12:10:05;;;;;;;;;;;;;;;29.27;94.52;98054.63;4781755;30;19973;-75
2022/06/30 12:12:35;;;;;;;;;;;;;;;29.29;86.94;98049.09;4790212;30;19950;-76
2022/06/30 12:15:04;;;;;;;;;;;;;;;29.34;93.67;98047.53;4789905;30;19955;-77
2022/06/30 12:17:33;;;;;;;;;;;;;;;29.20;86.92;98037.91;4789554;30;19969;-77
2022/06/30 12:20:01;;;;;;;;;;;;;;;29.23;96.50;98042.59;4784962;29;19955;-77
2022/06/30 12:22:29;;;;;;;;;;;;;;;29.31;92.89;98045.72;4787047;29;19949;-76
2022/06/30 12:24:57;;;;;;;;;;;;;;;29.49;91.15;98038.56;4786045;29;19951;-77
2022/06/30 12:27:28;;;;;;;;;;;;;;;29.55;100.00;98051.59;4794510;29;20367;-77
2022/06/30 12:29:56;;;;;;;;;;;;;;;29.39;92.96;98048.81;4793143;30;19969;-76
2022/06/30 12:32:24;;;;;;;;;;;;;;;29.49;100.00;98038.56;4791325;29;20255;-77
2022/06/30 12:34:58;;;;;;;;;;;;;;;29.47;90.89;98039.06;4789000;29;20040;-77
2022/06/30 12:37:37;;;;;;;;;;;;;;;29.50;88.78;98043.78;4785436;29;19952;-77
2022/06/30 12:40:06;;;;;;;;;;;;;;;29.57;88.47;98045.31;4788321;29;19962;-77
2022/06/30 12:42:39;;;;;;;;;;;;;;;29.53;83.54;98047.69;4775632;30;19970;-76
2022/06/30 12:45:26;;;;;;;;;;;;;;;29.54;83.14;98043.50;4774845;30;19960;-77
2022/06/30 12:47:54;;;;;;;;;;;;;;;29.55;85.82;98042.97;4774546;30;19957;-77
2022/06/30 12:50:22;;;;;;;;;;;;;;;29.56;88.23;98035.09;4775414;30;19972;-77
2022/06/30 12:52:50;;;;;;;;;;;;;;;29.60;90.45;98036.38;4775127;30;19976;-76
2022/06/30 12:55:17;;;;;;;;;;;;;;;29.63;93.49;98046.84;4774470;30;19952;-77
2022/06/30 12:57:47;;;;;;;;;;;;;;;29.60;84.88;98033.50;4774577;30;20254;-76
2022/06/30 13:00:15;;;;;;;;;;;;;;;29.68;90.04;98022.19;4783947;29;19949;-76
2022/06/30 13:02:43;;;;;;;;;;;;;;;29.68;95.17;98022.97;4792797;29;19952;-77
2022/06/30 13:05:11;;;;;;;;;;;;;;;29.58;91.97;98027.50;4791468;29;19957;-76
2022/06/30 13:07:39;;;;;;;;;;;;;;;29.50;95.33;98012.09;4795172;29;19955;-77
2022/06/30 13:10:07;;;;;;;;;;;;;;;29.59;85.31;98013.88;4786633;29;19969;-77
2022/06/30 13:12:34;;;;;;;;;;;;;;;29.62;87.87;98024.31;4790703;29;19977;-77
2022/06/30 13:15:02;;;;;;;;;;;;;;;29.48;81.68;98028.34;4792128;29;19986;-77
2022/06/30 13:17:29;;;;;;;;;;;;;;;29.59;93.66;98019.63;4796124;29;20271;-77
2022/06/30 13:19:56;;;;;;;;;;;;;;;29.57;79.16;98025.13;4789827;29;19952;-77
2022/06/30 13:22:23;;;;;;;;;;;;;;;29.75;84.55;98015.84;4788109;29;20259;-77
2022/06/30 13:24:51;;;;;;;;;;;;;;;29.79;91.50;98019.25;4786429;29;19948;-77
2022/06/30 13:27:18;;;;;;;;;;;;;;;29.69;83.59;98013.00;4786819;29;19958;-77
2022/06/30 13:30:17;;;;;;;;;;;;;;;29.82;83.91;98018.19;4789639;29;19974;-77
2022/06/30 13:32:45;;;;;;;;;;;;;;;29.97;77.38;98017.81;4786026;29;19953;-77
2022/06/30 13:35:12;;;;;;;;;;;;;;;30.04;76.86;98012.25;4791050;29;19958;-77
2022/06/30 13:37:39;;;;;;;;;;;;;;;30.05;75.73;98013.81;4789291;29;19949;-76
2022/06/30 13:40:07;;;;;;;;;;;;;;;30.12;77.55;98010.34;4792420;29;19951;-77
2022/06/30 13:42:34;;;;;;;;;;;;;;;30.14;82.68;98015.56;4791569;29;19971;-77
2022/06/30 13:45:01;;;;;;;;;;;;;;;30.13;81.04;98014.78;4791774;29;19952;-77
2022/06/30 13:47:30;;;;;;;;;;;;;;;30.17;68.29;98011.63;4790008;29;20229;-77
2022/06/30 13:49:58;;;;;;;;;;;;;;;30.15;65.23;98005.59;4786265;29;19963;-76
2022/06/30 13:52:25;;;;;;;;;;;;;;;30.13;62.80;98014.00;4799364;29;19953;-76
2022/06/30 13:54:52;;;;;;;;;;;;;;;30.20;65.86;97999.75;4788173;29;19953;-77
2022/06/30 13:57:19;;;;;;;;;;;;;;;30.33;72.20;98004.91;4796403;29;20351;-77
2022/06/30 13:59:47;;;;;;;;;;;;;;;30.33;67.02;97999.91;4790279;29;19960;-77
2022/06/30 14:02:14;;;;;;;;;;;;;;;30.26;70.02;97999.72;4790049;29;20256;-77
2022/06/30 14:04:41;;;;;;;;;;;;;;;30.23;74.59;97995.81;4789825;29;19949;-77
2022/06/30 14:07:08;;;;;;;;;;;;;;;30.09;68.57;98005.66;4790858;29;19953;-77
2022/06/30 14:09:35;;;;;;;;;;;;;;;30.01;74.66;98001.00;4786074;29;19969;-77
2022/06/30 14:12:03;;;;;;;;;;;;;;;29.97;73.04;98009.16;4772982;29;20212;-77
2022/06/30 14:14:31;;;;;;;;;;;;;;;30.01;81.15;98001.78;4790560;29;19948;-77
2022/06/30 14:16:58;;;;;;;;;;;;;;;30.09;70.63;98008.53;4784809;29;19946;-77
2022/06/30 14:19:25;;;;;;;;;;;;;;;30.07;67.55;97998.84;4790669;29;20412;-76
2022/06/30 14:21:53;;;;;;;;;;;;;;;30.14;69.26;97995.38;4786535;29;19946;-76
2022/06/30 14:24:20;;;;;;;;;;;;;;;30.22;57.15;97994.25;4800445;29;19947;-77
2022/06/30 14:26:48;;;;;;;;;;;;;;;30.24;62.37;98002.38;4790986;30;19951;-77
2022/06/30 14:29:16;;;;;;;;;;;;;;;30.14;66.99;97993.28;4791818;29;20243;-77
2022/06/30 14:31:43;;;;;;;;;;;;;;;30.14;67.47;97992.50;4791246;30;20259;-77
2022/06/30 14:34:10;;;;;;;;;;;;;;;30.12;73.51;97987.28;4786553;30;19954;-77
2022/06/30 14:36:38;;;;;;;;;;;;;;;30.03;59.13;97995.50;4787636;30;19946;-77
2022/06/30 14:39:05;;;;;;;;;;;;;;;29.83;64.70;97991.69;4771241;30;19958;-77
2022/06/30 14:44:18;;;;;;;;;;;;;;;29.70;62.60;97993.63;4780532;29;20232;-77
2022/06/30 14:46:45;;;;;;;;;;;;;;;29.75;65.84;97992.78;4798154;29;20257;-77
2022/06/30 14:49:13;;;;;;;;;;;;;;;29.73;66.67;97996.22;4789599;29;19949;-76
2022/06/30 14:51:47;;;;;;;;;;;;;;;29.72;55.08;97991.75;4777790;30;19961;-77
2022/06/30 14:54:14;;;;;;;;;;;;;;;29.76;83.06;97985.72;4790932;30;19958;-77
2022/06/30 14:56:41;;;;;;;;;;;;;;;29.72;69.60;97990.97;4790940;30;19955;-77
2022/06/30 14:59:09;;;;;;;;;;;;;;;29.74;71.25;97991.22;4791010;30;19976;-76
2022/06/30 15:01:36;;;;;;;;;;;;;;;29.74;69.60;97994.09;4790672;30;19958;-77
2022/06/30 15:04:04;;;;;;;;;;;;;;;29.76;64.10;97989.34;4790695;30;19949;-77
2022/06/30 15:06:31;;;;;;;;;;;;;;;29.80;63.52;97987.03;4790993;30;19942;-77
2022/06/30 15:08:58;;;;;;;;;;;;;;;29.83;59.80;97990.94;4790987;30;19951;-77
2022/06/30 15:11:28;;;;;;;;;;;;;;;29.89;51.65;97986.69;4790953;30;19964;-77
2022/06/30 15:13:55;;;;;;;;;;;;;;;29.90;53.48;97981.69;4790755;30;19947;-77
2022/06/30 15:16:23;;;;;;;;;;;;;;;29.91;51.23;97978.28;4790345;30;20012;-77
2022/06/30 15:18:50;;;;;;;;;;;;;;;29.97;53.77;97981.09;4790507;30;20659;-76
2022/06/30 15:24:10;;;;;;;;;;;;;;;30.01;54.36;97967.16;4790932;30;19955;-76
2022/06/30 15:26:42;;;;;;;;;;;;;;;30.00;53.06;97973.50;4774177;30;20233;-76
2022/06/30 15:29:11;;;;;;;;;;;;;;;29.95;51.10;97963.56;4790381;30;19980;-77
2022/06/30 15:31:41;;;;;;;;;;;;;;;29.98;51.81;97971.13;4774213;30;19995;-77
2022/06/30 15:34:09;;;;;;;;;;;;;;;29.94;57.15;97967.75;4790071;29;19950;-77
2022/06/30 15:36:36;;;;;;;;;;;;;;;29.93;51.25;97955.44;4790094;30;19957;-77
2022/06/30 15:39:04;;;;;;;;;;;;;;;29.94;49.68;97964.88;4792512;29;20243;-77
2022/06/30 15:41:32;;;;;;;;;;;;;;;29.86;53.57;97955.25;4785956;30;19957;-77
2022/06/30 15:44:01;;;;;;;;;;;;;;;29.90;52.96;97955.75;4790057;29;19951;-75
2022/06/30 15:46:30;;;;;;;;;;;;;;;29.92;59.08;97958.88;4790106;29;19952;-76
2022/06/30 15:48:57;;;;;;;;;;;;;;;29.87;62.20;97954.72;4790386;29;19960;-76
2022/06/30 15:51:25;;;;;;;;;;;;;;;29.80;59.40;97960.28;4777343;29;20242;-76
2022/06/30 15:53:52;;;;;;;;;;;;;;;29.74;54.81;97962.38;4795669;29;19958;-77
2022/06/30 15:56:20;;;;;;;;;;;;;;;29.68;51.42;97955.91;4787878;30;19951;-76
2022/06/30 15:58:47;;;;;;;;;;;;;;;29.65;54.19;97954.09;4764875;30;19956;-76
2022/06/30 16:01:14;;;;;;;;;;;;;;;29.62;53.87;97960.91;4782606;29;20251;-76
2022/06/30 16:03:42;;;;;;;;;;;;;;;29.55;54.79;97961.50;4788027;29;19961;-76
2022/06/30 16:06:10;;;;;;;;;;;;;;;29.51;56.10;97961.00;4788392;29;19951;-76
2022/06/30 16:08:37;;;;;;;;;;;;;;;29.45;50.21;97948.72;4780628;29;19964;-77
2022/06/30 16:11:05;;;;;;;;;;;;;;;29.40;54.07;97964.72;4788793;30;19973;-76
2022/06/30 16:13:34;;;;;;;;;;;;;;;29.36;52.20;97964.25;4779420;30;19949;-76
2022/06/30 16:16:03;;;;;;;;;;;;;;;29.27;54.29;97953.06;4772484;30;19949;-77
2022/06/30 16:18:30;;;;;;;;;;;;;;;29.26;50.90;97955.16;4771614;30;19953;-77
2022/06/30 16:20:58;;;;;;;;;;;;;;;29.19;48.70;97946.28;4777888;30;19959;-77
2022/06/30 16:23:25;;;;;;;;;;;;;;;29.16;51.56;97945.22;4789578;30;19953;-77
2022/06/30 16:25:52;;;;;;;;;;;;;;;29.09;51.51;97948.66;4789385;30;19958;-77
2022/06/30 16:28:20;;;;;;;;;;;;;;;29.01;52.08;97946.88;4789567;30;19980;-77
2022/06/30 16:30:47;;;;;;;;;;;;;;;28.91;50.14;97943.53;4773213;30;19973;-77
2022/06/30 16:33:14;;;;;;;;;;;;;;;28.88;52.73;97944.56;4793084;29;19948;-76
2022/06/30 16:35:42;;;;;;;;;;;;;;;28.81;51.22;97945.13;4789307;30;19985;-76
2022/06/30 16:38:09;;;;;;;;;;;;;;;28.71;52.73;97948.88;4789622;30;19954;-76
2022/06/30 16:40:36;;;;;;;;;;;;;;;28.68;48.49;97939.19;4783775;29;19947;-76
2022/06/30 16:43:05;;;;;;;;;;;;;;;28.67;48.43;97937.63;4784873;30;19976;-76
2022/06/30 16:45:33;;;;;;;;;;;;;;;28.61;48.53;97931.88;4789495;29;19957;-77
2022/06/30 16:48:00;;;;;;;;;;;;;;;28.54;48.19;97929.53;4788467;29;19954;-76
2022/06/30 16:50:28;;;;;;;;;;;;;;;28.46;48.58;97939.25;4786445;29;20300;-77
2022/06/30 16:52:58;;;;;;;;;;;;;;;28.42;45.94;97933.75;4782326;29;20235;-77
2022/06/30 16:55:28;;;;;;;;;;;;;;;28.35;49.93;97934.28;4776637;29;19953;-76
2022/06/30 16:57:56;;;;;;;;;;;;;;;28.35;43.21;97933.50;4772381;30;19949;-77
2022/06/30 17:00:23;;;;;;;;;;;;;;;28.26;47.46;97930.91;4782104;30;20261;-76
2022/06/30 17:02:50;;;;;;;;;;;;;;;28.21;48.25;97934.59;4782474;30;20375;-77
2022/06/30 17:05:20;;;;;;;;;;;;;;;28.16;46.12;97941.13;4781929;29;19948;-77
2022/06/30 17:07:48;;;;;;;;;;;;;;;28.10;43.58;97938.25;4787297;30;20327;-77
2022/06/30 17:10:15;;;;;;;;;;;;;;;28.06;40.48;97945.59;4783451;29;19947;-76
2022/06/30 17:12:42;;;;;;;;;;;;;;;28.04;44.59;97937.50;4786962;29;19951;-76
2022/06/30 17:15:10;;;;;;;;;;;;;;;27.89;51.74;97931.22;4785671;29;20251;-74
2022/06/30 17:17:37;;;;;;;;;;;;;;;27.86;42.95;97933.03;4784896;29;19953;-77
2022/06/30 17:20:06;;;;;;;;;;;;;;;27.81;39.19;97936.69;4784672;30;19955;-75
2022/06/30 17:22:33;;;;;;;;;;;;;;;27.85;37.52;97937.22;4784665;29;19956;-76
2022/06/30 17:25:00;;;;;;;;;;;;;;;27.81;36.29;97941.66;4785500;29;19958;-75
2022/06/30 17:27:27;;;;;;;;;;;;;;;27.82;34.98;97934.63;4784724;30;19953;-76
2022/06/30 17:29:56;;;;;;;;;;;;;;;27.72;36.42;97936.19;4784107;29;19956;-76
2022/06/30 17:32:23;;;;;;;;;;;;;;;27.72;37.25;97939.06;4783107;29;19971;-77
2022/06/30 17:34:54;;;;;;;;;;;;;;;27.66;35.23;97933.31;4783581;30;19957;-76
2022/06/30 17:37:22;;;;;;;;;;;;;;;27.68;31.83;97938.53;4788386;29;20372;-75
2022/06/30 17:39:49;;;;;;;;;;;;;;;27.64;32.99;97926.50;4792787;30;19951;-75
2022/06/30 17:42:17;;;;;;;;;;;;;;;27.62;34.78;97914.75;4791873;29;20005;-77
2022/06/30 17:44:44;;;;;;;;;;;;;;;27.55;35.84;97918.94;4792663;30;19946;-76
2022/06/30 17:47:11;;;;;;;;;;;;;;;27.51;33.79;97923.41;4793684;29;20254;-76
2022/06/30 17:49:39;;;;;;;;;;;;;;;27.45;34.74;97920.50;4786099;29;19949;-75
2022/06/30 17:52:07;;;;;;;;;;;;;;;27.45;32.23;97926.25;4774285;30;19971;-76
2022/06/30 17:54:38;;;;;;;;;;;;;;;27.40;32.74;97927.03;4774657;30;20335;-75
2022/06/30 17:57:09;;;;;;;;;;;;;;;27.31;34.41;97933.00;4781148;29;19954;-74
2022/06/30 17:59:36;;;;;;;;;;;;;;;27.26;33.71;97925.16;4782552;30;19954;-76
2022/06/30 18:02:04;;;;;;;;;;;;;;;27.19;33.74;97929.31;4786451;29;20280;-75
2022/06/30 18:04:31;;;;;;;;;;;;;;;27.14;34.88;97926.44;4784572;29;19956;-76
2022/06/30 18:12:29;;;;;;;;;;;;;;;26.94;33.73;97929.53;4782467;30;19968;-75
2022/06/30 18:14:57;;;;;;;;;;;;;;;26.91;35.00;97927.69;4782956;29;20027;-75
2022/06/30 18:17:24;;;;;;;;;;;;;;;26.86;36.22;97932.09;4784156;29;19946;-76
2022/06/30 18:19:51;;;;;;;;;;;;;;;26.72;38.29;97919.53;4790934;29;19981;-75
2022/06/30 18:22:19;;;;;;;;;;;;;;;26.66;37.33;97920.78;4774514;30;19953;-75
2022/06/30 18:24:47;;;;;;;;;;;;;;;26.58;36.39;97920.50;4791431;30;19955;-75
2022/06/30 18:27:15;;;;;;;;;;;;;;;26.55;38.97;97915.00;4791117;30;19956;-75
2022/06/30 18:29:43;;;;;;;;;;;;;;;26.40;41.01;97911.56;4781201;30;20008;-75
2022/06/30 18:32:10;;;;;;;;;;;;;;;26.28;40.54;97912.81;4785008;30;19968;-75
2022/06/30 18:34:37;;;;;;;;;;;;;;;26.15;39.27;97912.47;4785580;30;19962;-75
2022/06/30 18:37:05;;;;;;;;;;;;;;;26.04;43.52;97908.19;4785258;30;19948;-76
2022/06/30 18:39:33;;;;;;;;;;;;;;;25.92;42.01;97906.56;4789569;30;19960;-75
2022/06/30 18:42:00;;;;;;;;;;;;;;;25.74;45.34;97900.44;4790526;30;19972;-75
2022/06/30 18:44:27;;;;;;;;;;;;;;;25.60;40.71;97901.38;4782712;29;19951;-75
2022/06/30 18:46:56;;;;;;;;;;;;;;;25.45;41.11;97907.25;4790936;29;20221;-75
2022/06/30 18:49:29;;;;;;;;;;;;;;;25.34;41.91;97901.38;4791220;29;20340;-75